createdAt,value
2022-10-14T00:01:19.855Z,8.00
2022-10-14T00:03:48.345Z,8.10
2022-10-14T00:06:30.919Z,8.10
2022-10-14T00:09:06.221Z,8.10
2022-10-14T00:11:35.688Z,8.10
2022-10-14T00:14:07.692Z,8.00
2022-10-14T00:16:38.100Z,8.10
2022-10-14T00:19:07.016Z,8.00
2022-10-14T00:21:35.710Z,8.00
2022-10-14T00:24:03.551Z,7.90
2022-10-14T00:26:36.913Z,8.00
2022-10-14T00:29:07.587Z,8.00
2022-10-14T00:31:36.042Z,8.10
2022-10-14T00:34:04.091Z,8.20
2022-10-14T00:36:32.173Z,8.10
2022-10-14T00:38:59.786Z,8.10
2022-10-14T00:41:30.965Z,8.00
2022-10-14T00:44:07.631Z,8.10
2022-10-14T00:46:40.643Z,8.10
2022-10-14T00:49:19.115Z,8.20
2022-10-14T00:51:55.435Z,8.10
2022-10-14T00:54:29.973Z,8.10
2022-10-14T00:56:59.321Z,8.20
2022-10-14T00:59:27.363Z,8.10
2022-10-14T01:01:55.044Z,8.10
2022-10-14T01:04:23.165Z,8.00
2022-10-14T01:07:22.489Z,8.00
2022-10-14T01:10:35.760Z,8.00
2022-10-14T01:13:06.486Z,8.10
2022-10-14T01:15:40.694Z,8.10
2022-10-14T01:18:28.078Z,8.20
2022-10-14T01:21:20.142Z,8.20
2022-10-14T01:24:02.965Z,8.10
2022-10-14T01:26:49.175Z,8.10
2022-10-14T01:29:41.788Z,8.20
2022-10-14T01:32:54.496Z,8.10
2022-10-14T01:35:50.865Z,8.10
2022-10-14T01:38:24.259Z,8.10
2022-10-14T01:41:25.570Z,8.10
2022-10-14T01:43:56.722Z,8.20
2022-10-14T01:46:27.341Z,8.10
2022-10-14T01:48:58.565Z,8.10
2022-10-14T01:51:32.508Z,8.10
2022-10-14T01:54:15.207Z,8.10
2022-10-14T01:56:46.643Z,8.20
2022-10-14T01:59:17.160Z,8.20
2022-10-14T02:01:46.296Z,8.20
2022-10-14T02:04:17.551Z,8.20
2022-10-14T02:07:07.892Z,8.00
2022-10-14T02:09:38.562Z,8.00
2022-10-14T02:12:25.046Z,8.00
2022-10-14T02:14:55.661Z,7.90
2022-10-14T02:17:46.631Z,8.00
2022-10-14T02:20:28.466Z,8.00
2022-10-14T02:23:02.082Z,7.90
2022-10-14T02:25:35.033Z,7.90
2022-10-14T02:28:04.666Z,7.90
2022-10-14T02:30:38.766Z,8.00
2022-10-14T02:33:07.768Z,7.90
2022-10-14T02:35:37.329Z,7.90
2022-10-14T02:38:07.689Z,7.80
2022-10-14T02:40:43.235Z,7.90
2022-10-14T02:43:12.282Z,7.90
2022-10-14T02:45:41.902Z,7.80
2022-10-14T02:48:10.505Z,7.80
2022-10-14T02:50:38.425Z,7.90
2022-10-14T02:53:06.007Z,7.90
2022-10-14T02:55:33.650Z,7.70
2022-10-14T02:58:01.780Z,7.80
2022-10-14T03:00:29.554Z,7.90
2022-10-14T03:02:57.922Z,7.90
2022-10-14T03:05:27.955Z,7.90
2022-10-14T03:07:55.975Z,7.80
2022-10-14T03:10:25.808Z,7.80
2022-10-14T03:12:53.952Z,7.80
2022-10-14T03:15:29.707Z,7.80
2022-10-14T03:17:58.596Z,7.90
2022-10-14T03:20:35.457Z,7.90
2022-10-14T03:23:04.801Z,7.90
2022-10-14T03:25:36.111Z,7.80
2022-10-14T03:28:08.562Z,7.80
2022-10-14T03:30:54.891Z,7.80
2022-10-14T03:33:42.145Z,7.80
2022-10-14T03:36:13.554Z,7.70
2022-10-14T03:38:46.195Z,7.70
2022-10-14T03:41:24.640Z,7.80
2022-10-14T03:43:53.455Z,7.80
2022-10-14T03:46:21.806Z,7.80
2022-10-14T03:48:52.352Z,7.90
2022-10-14T03:51:20.440Z,7.90
2022-10-14T03:53:48.330Z,7.80
2022-10-14T03:56:23.877Z,7.80
2022-10-14T03:58:54.100Z,7.80
2022-10-14T04:01:23.685Z,7.80
2022-10-14T04:04:15.164Z,7.90
2022-10-14T04:06:42.957Z,7.90
2022-10-14T04:09:11.297Z,7.90
2022-10-14T04:11:41.617Z,7.90
2022-10-14T04:14:15.631Z,7.90
2022-10-14T04:16:49.954Z,7.90
2022-10-14T04:19:19.649Z,8.00
2022-10-14T04:21:47.746Z,8.00
2022-10-14T04:24:17.086Z,8.00
2022-10-14T04:26:52.911Z,8.00
2022-10-14T04:29:38.978Z,8.10
2022-10-14T04:32:13.766Z,8.10
2022-10-14T04:34:41.572Z,8.20
2022-10-14T04:37:12.485Z,8.10
2022-10-14T04:39:56.447Z,8.20
2022-10-14T04:42:24.916Z,8.20
2022-10-14T04:44:56.976Z,8.20
2022-10-14T04:47:35.742Z,8.10
2022-10-14T04:50:03.702Z,8.10
2022-10-14T04:52:33.074Z,7.90
2022-10-14T04:55:07.264Z,7.90
2022-10-14T04:57:44.114Z,7.90
2022-10-14T05:00:13.539Z,8.00
2022-10-14T05:02:51.310Z,8.00
2022-10-14T05:05:20.435Z,8.00
2022-10-14T05:07:52.136Z,8.10
2022-10-14T05:10:33.761Z,8.00
2022-10-14T05:13:05.390Z,8.10
2022-10-14T05:15:38.243Z,8.10
2022-10-14T05:18:13.481Z,8.20
2022-10-14T05:21:03.336Z,8.10
2022-10-14T05:23:45.895Z,8.20
2022-10-14T05:26:14.213Z,8.20
2022-10-14T05:28:43.341Z,8.30
2022-10-14T05:31:11.155Z,8.30
2022-10-14T05:33:46.905Z,8.30
2022-10-14T05:36:14.471Z,8.30
2022-10-14T05:38:42.353Z,8.30
2022-10-14T05:41:10.113Z,8.40
2022-10-14T05:43:39.052Z,8.40
2022-10-14T05:46:07.614Z,8.50
2022-10-14T05:48:39.733Z,8.50
2022-10-14T05:51:07.679Z,8.60
2022-10-14T05:53:39.942Z,8.60
2022-10-14T05:56:13.103Z,8.60
2022-10-14T05:58:41.666Z,8.70
2022-10-14T06:01:10.926Z,8.80
2022-10-14T06:03:41.453Z,8.80
2022-10-14T06:06:15.800Z,8.80
2022-10-14T06:08:44.566Z,8.80
2022-10-14T06:11:13.041Z,8.70
2022-10-14T06:13:41.503Z,8.70
2022-10-14T06:16:11.328Z,8.80
2022-10-14T06:18:39.210Z,8.90
2022-10-14T06:21:08.033Z,8.80
2022-10-14T06:23:35.747Z,8.80
2022-10-14T06:26:07.667Z,8.80
2022-10-14T06:28:36.294Z,8.90
2022-10-14T06:31:04.168Z,8.90
2022-10-14T06:33:32.217Z,8.90
2022-10-14T06:36:02.167Z,9.00
2022-10-14T06:38:30.058Z,9.10
2022-10-14T06:40:57.886Z,9.00
2022-10-14T06:43:25.807Z,9.00
2022-10-14T06:45:53.589Z,8.90
2022-10-14T06:48:21.356Z,9.00
2022-10-14T06:50:49.090Z,9.30
2022-10-14T06:53:16.940Z,9.50
2022-10-14T06:55:44.965Z,9.70
2022-10-14T06:58:12.984Z,9.50
2022-10-14T07:00:44.305Z,9.80
2022-10-14T07:03:15.145Z,10.10
2022-10-14T07:05:42.861Z,10.30
2022-10-14T07:08:14.548Z,10.30
2022-10-14T07:10:44.508Z,10.20
2022-10-14T07:13:12.285Z,10.40
2022-10-14T07:15:40.527Z,10.30
2022-10-14T07:18:08.531Z,10.40
2022-10-14T07:20:36.312Z,10.80
2022-10-14T07:23:03.950Z,11.00
2022-10-14T07:25:33.146Z,10.90
2022-10-14T07:28:01.435Z,11.00
2022-10-14T07:30:29.211Z,11.30
2022-10-14T07:32:57.261Z,11.40
2022-10-14T07:35:26.926Z,10.80
2022-10-14T07:37:55.492Z,11.30
2022-10-14T07:40:23.348Z,11.50
2022-10-14T07:42:51.117Z,11.70
2022-10-14T07:45:21.108Z,11.60
2022-10-14T07:47:50.478Z,11.40
2022-10-14T07:50:18.637Z,11.50
2022-10-14T07:52:46.248Z,11.20
2022-10-14T07:55:14.477Z,11.30
2022-10-14T07:57:42.406Z,11.10
2022-10-14T08:00:10.704Z,11.30
2022-10-14T08:02:41.123Z,10.50
2022-10-14T08:05:32.858Z,10.70
2022-10-14T08:07:56.672Z,10.90
2022-10-14T08:10:24.198Z,10.90
2022-10-14T08:12:52.402Z,10.70
2022-10-14T08:15:20.096Z,10.60
2022-10-14T08:17:47.783Z,10.70
2022-10-14T08:20:15.841Z,10.80
2022-10-14T08:22:45.120Z,10.80
2022-10-14T08:25:12.861Z,11.00
2022-10-14T08:27:40.353Z,11.00
2022-10-14T08:30:11.259Z,11.10
2022-10-14T08:32:39.183Z,11.00
2022-10-14T08:35:07.877Z,11.00
2022-10-14T08:37:36.473Z,10.80
2022-10-14T08:40:05.272Z,10.90
2022-10-14T08:43:02.495Z,10.90
2022-10-14T08:45:29.955Z,11.00
2022-10-14T08:48:01.787Z,10.80
2022-10-14T08:51:10.218Z,10.90
2022-10-14T08:53:48.058Z,10.60
2022-10-14T08:56:18.048Z,10.70
2022-10-14T08:58:54.857Z,10.70
2022-10-14T09:01:29.913Z,10.60
2022-10-14T09:04:02.054Z,10.70
2022-10-14T09:06:31.755Z,10.80
2022-10-14T09:09:26.571Z,10.90
2022-10-14T09:12:01.397Z,11.00
2022-10-14T09:14:39.874Z,11.00
2022-10-14T09:17:16.657Z,11.00
2022-10-14T09:19:54.759Z,11.00
2022-10-14T09:22:24.335Z,11.00
2022-10-14T09:24:52.178Z,11.00
2022-10-14T09:27:22.364Z,10.80
2022-10-14T09:29:52.404Z,10.90
2022-10-14T09:32:40.857Z,10.80
2022-10-14T09:35:29.013Z,10.80
2022-10-14T09:37:56.844Z,10.80
2022-10-14T09:40:47.802Z,10.80
2022-10-14T09:43:18.341Z,10.80
2022-10-14T09:45:48.857Z,10.90
2022-10-14T09:48:40.524Z,10.90
2022-10-14T09:51:11.282Z,10.90
2022-10-14T09:53:49.295Z,10.90
2022-10-14T09:56:27.399Z,10.90
2022-10-14T09:58:57.534Z,10.90
2022-10-14T10:01:29.119Z,10.80
2022-10-14T10:03:57.650Z,10.90
2022-10-14T10:06:27.178Z,10.90
2022-10-14T10:08:55.431Z,10.80
2022-10-14T10:11:40.167Z,10.80
2022-10-14T10:14:33.246Z,10.80
2022-10-14T10:17:10.139Z,10.80
2022-10-14T10:19:39.900Z,10.70
2022-10-14T10:22:20.961Z,10.70
2022-10-14T10:25:13.304Z,10.70
2022-10-14T10:27:45.884Z,10.70
2022-10-14T10:30:43.609Z,10.80
2022-10-14T10:33:26.863Z,10.90
2022-10-14T10:39:03.365Z,10.90
2022-10-14T10:42:01.577Z,11.00
2022-10-14T10:44:32.159Z,11.10
2022-10-14T10:47:21.530Z,11.30
2022-10-14T10:50:10.635Z,11.50
2022-10-14T10:52:41.447Z,11.50
2022-10-14T10:55:37.639Z,11.60
2022-10-14T10:58:44.465Z,11.60
2022-10-14T11:01:33.723Z,11.70
2022-10-14T11:04:23.173Z,11.80
2022-10-14T11:07:32.890Z,11.90
2022-10-14T11:10:31.289Z,12.20
2022-10-14T11:13:12.096Z,12.30
2022-10-14T11:15:48.842Z,12.40
2022-10-14T11:18:45.846Z,12.40
2022-10-14T11:21:40.811Z,12.20
2022-10-14T11:24:27.336Z,12.10
2022-10-14T11:27:01.029Z,12.10
2022-10-14T11:29:28.995Z,11.90
2022-10-14T11:32:19.848Z,12.00
2022-10-14T11:35:03.119Z,12.10
2022-10-14T11:37:47.396Z,12.20
2022-10-14T11:40:31.570Z,12.20
2022-10-14T11:43:46.160Z,12.10
2022-10-14T11:46:22.954Z,11.90
2022-10-14T11:49:00.297Z,11.90
2022-10-14T11:51:44.142Z,11.90
2022-10-14T11:54:32.327Z,11.90
2022-10-14T11:57:25.166Z,11.90
2022-10-14T12:00:07.263Z,12.10
2022-10-14T12:02:59.665Z,12.00
2022-10-14T12:05:55.356Z,11.90
2022-10-14T12:08:40.458Z,11.90
2022-10-14T12:11:20.855Z,12.00
2022-10-14T12:13:52.525Z,11.80
2022-10-14T12:16:25.176Z,11.80
2022-10-14T12:18:57.848Z,11.80
2022-10-14T12:21:45.628Z,11.80
2022-10-14T12:24:27.744Z,11.50
2022-10-14T12:26:58.994Z,11.60
2022-10-14T12:29:41.525Z,11.70
2022-10-14T12:32:25.829Z,11.70
2022-10-14T12:35:04.489Z,11.80
2022-10-14T12:37:35.535Z,11.70
2022-10-14T12:40:03.908Z,11.60
2022-10-14T12:42:34.849Z,11.60
2022-10-14T12:45:16.579Z,11.70
2022-10-14T12:47:44.879Z,11.60
2022-10-14T12:50:18.029Z,11.80
2022-10-14T12:52:56.577Z,11.80
2022-10-14T12:55:28.739Z,11.60
2022-10-14T12:58:07.420Z,11.50
2022-10-14T13:00:39.458Z,11.60
2022-10-14T13:03:20.387Z,11.50
2022-10-14T13:05:48.918Z,11.50
2022-10-14T13:08:20.426Z,11.40
2022-10-14T13:11:09.709Z,11.30
2022-10-14T13:13:47.905Z,11.30
2022-10-14T13:16:21.613Z,11.30
2022-10-14T13:19:02.530Z,11.30
2022-10-14T13:21:39.033Z,11.40
2022-10-14T13:24:27.249Z,11.40
2022-10-14T13:26:55.002Z,11.50
2022-10-14T13:29:38.007Z,11.50
2022-10-14T13:32:31.199Z,11.40
2022-10-14T13:35:31.356Z,11.30
2022-10-14T13:38:07.110Z,11.30
2022-10-14T13:40:39.093Z,11.30
2022-10-14T13:43:45.512Z,11.20
2022-10-14T13:46:22.828Z,11.20
2022-10-14T13:48:55.635Z,11.30
2022-10-14T13:51:36.725Z,11.40
2022-10-14T13:54:23.579Z,11.40
2022-10-14T13:57:53.626Z,11.30
2022-10-14T14:00:39.559Z,11.30
2022-10-14T14:02:56.731Z,11.20
2022-10-14T14:05:37.527Z,11.00
2022-10-14T14:08:38.739Z,11.00
2022-10-14T14:11:16.286Z,11.30
2022-10-14T14:14:00.733Z,11.30
2022-10-14T14:16:41.443Z,11.20
2022-10-14T14:19:22.147Z,11.40
2022-10-14T14:21:51.218Z,11.30
2022-10-14T14:24:25.700Z,11.40
2022-10-14T14:26:56.021Z,11.40
2022-10-14T14:29:31.860Z,11.40
2022-10-14T14:32:07.568Z,11.40
2022-10-14T14:34:40.074Z,11.40
2022-10-14T14:37:40.181Z,11.30
2022-10-14T14:40:26.653Z,11.30
2022-10-14T14:42:59.400Z,11.30
2022-10-14T14:45:57.291Z,11.30
2022-10-14T14:48:26.120Z,11.30
2022-10-14T14:50:54.708Z,11.10
2022-10-14T14:53:30.224Z,11.10
2022-10-14T14:56:14.381Z,11.00
2022-10-14T14:58:51.457Z,11.00
2022-10-14T15:01:23.443Z,11.00
2022-10-14T15:04:13.758Z,11.00
2022-10-14T15:06:59.203Z,11.10
2022-10-14T15:09:38.648Z,11.20
2022-10-14T15:12:19.736Z,10.90
2022-10-14T15:14:53.361Z,10.90
2022-10-14T15:17:35.062Z,10.80
2022-10-14T15:20:26.517Z,10.90
2022-10-14T15:22:54.507Z,10.80
2022-10-14T15:25:30.355Z,10.90
2022-10-14T15:28:02.586Z,11.00
2022-10-14T15:30:52.042Z,11.00
2022-10-14T15:33:27.415Z,10.80
2022-10-14T15:35:57.017Z,10.90
2022-10-14T15:38:26.548Z,10.80
2022-10-14T15:40:55.169Z,10.70
2022-10-14T15:43:25.563Z,10.80
2022-10-14T15:46:20.828Z,10.90
2022-10-14T15:48:57.668Z,10.80
2022-10-14T15:51:30.839Z,10.80
2022-10-14T15:53:58.947Z,10.80
2022-10-14T15:56:27.106Z,10.70
2022-10-14T15:58:56.130Z,10.80
2022-10-14T16:01:24.844Z,10.80
2022-10-14T16:03:52.564Z,10.60
2022-10-14T16:06:23.170Z,10.60
2022-10-14T16:08:51.610Z,10.70
2022-10-14T16:11:29.965Z,10.80
2022-10-14T16:13:57.963Z,10.80
2022-10-14T16:16:31.989Z,10.70
2022-10-14T16:19:05.197Z,10.50
2022-10-14T16:21:33.828Z,10.60
2022-10-14T16:24:02.994Z,10.60
2022-10-14T16:26:31.224Z,10.70
2022-10-14T16:29:01.182Z,10.70
2022-10-14T16:31:29.348Z,10.60
2022-10-14T16:33:57.435Z,10.60
2022-10-14T16:36:26.436Z,10.50
2022-10-14T16:38:57.264Z,10.60
2022-10-14T16:41:28.022Z,10.70
2022-10-14T16:43:55.784Z,10.70
2022-10-14T16:46:47.478Z,10.60
2022-10-14T16:49:15.762Z,10.50
2022-10-14T16:51:44.523Z,10.60
2022-10-14T16:54:12.565Z,10.60
2022-10-14T16:56:53.059Z,10.60
2022-10-14T16:59:21.943Z,10.50
2022-10-14T17:01:51.564Z,10.50
2022-10-14T17:04:24.626Z,10.60
2022-10-14T17:06:58.791Z,10.60
2022-10-14T17:09:27.771Z,10.70
2022-10-14T17:11:59.462Z,10.60
2022-10-14T17:14:28.720Z,10.70
2022-10-14T17:16:56.683Z,10.60
2022-10-14T17:19:26.289Z,10.70
2022-10-14T17:21:55.712Z,10.80
2022-10-14T17:24:23.641Z,10.80
2022-10-14T17:26:52.989Z,10.80
2022-10-14T17:29:21.282Z,10.80
2022-10-14T17:31:51.275Z,10.80
2022-10-14T17:34:19.222Z,10.80
2022-10-14T17:36:47.580Z,10.80
2022-10-14T17:39:22.918Z,10.80
2022-10-14T17:41:58.023Z,10.70
2022-10-14T17:44:26.179Z,10.70
2022-10-14T17:46:54.000Z,10.80
2022-10-14T17:49:22.983Z,10.80
2022-10-14T17:51:51.185Z,10.70
2022-10-14T17:54:19.477Z,10.80
2022-10-14T17:56:47.506Z,10.80
2022-10-14T17:59:17.716Z,10.80
2022-10-14T18:02:03.166Z,10.80
2022-10-14T18:04:33.602Z,10.70
2022-10-14T18:07:02.671Z,10.70
2022-10-14T18:09:30.521Z,10.70
2022-10-14T18:12:14.500Z,10.70
2022-10-14T18:14:44.144Z,10.70
2022-10-14T18:17:14.279Z,10.60
2022-10-14T18:19:46.132Z,10.70
2022-10-14T18:22:18.511Z,10.60
2022-10-14T18:24:46.726Z,10.60
2022-10-14T18:27:15.437Z,10.60
2022-10-14T18:29:43.529Z,10.70
2022-10-14T18:32:11.526Z,10.70
2022-10-14T18:34:40.222Z,10.80
2022-10-14T18:37:09.714Z,10.70
2022-10-14T18:39:37.865Z,10.70
2022-10-14T18:42:07.850Z,10.60
2022-10-14T18:44:35.734Z,10.60
2022-10-14T18:47:05.040Z,10.50
2022-10-14T18:49:36.799Z,10.60
2022-10-14T18:52:09.726Z,10.60
2022-10-14T18:54:39.761Z,10.60
2022-10-14T18:57:08.191Z,10.70
2022-10-14T18:59:39.262Z,10.50
2022-10-14T19:02:09.274Z,10.60
2022-10-14T19:04:37.444Z,10.60
2022-10-14T19:07:08.812Z,10.70
2022-10-14T19:09:37.316Z,10.70
2022-10-14T19:12:25.528Z,10.60
2022-10-14T19:14:54.525Z,10.60
2022-10-14T19:17:22.341Z,10.50
2022-10-14T19:19:51.541Z,10.50
2022-10-14T19:22:20.430Z,10.50
2022-10-14T19:24:50.256Z,10.60
2022-10-14T19:27:18.109Z,10.70
2022-10-14T19:29:47.227Z,10.70
2022-10-14T19:32:14.906Z,10.80
2022-10-14T19:34:47.476Z,10.80
2022-10-14T19:37:15.351Z,10.80
2022-10-14T19:39:43.435Z,10.70
2022-10-14T19:42:11.316Z,10.80
2022-10-14T19:44:39.021Z,10.80
2022-10-14T19:47:07.190Z,10.70
2022-10-14T19:49:35.334Z,10.60
2022-10-14T19:52:03.406Z,10.60
2022-10-14T19:54:31.116Z,10.60
2022-10-14T19:56:59.003Z,10.60
2022-10-14T19:59:27.838Z,10.70
2022-10-14T20:01:55.783Z,10.70
2022-10-14T20:04:26.695Z,10.60
2022-10-14T20:06:58.722Z,10.50
2022-10-14T20:09:27.357Z,10.50
2022-10-14T20:11:55.049Z,10.50
2022-10-14T20:14:22.717Z,10.50
2022-10-14T20:16:53.611Z,10.50
2022-10-14T20:19:23.717Z,10.50
2022-10-14T20:21:51.542Z,10.40
2022-10-14T20:24:19.599Z,10.50
2022-10-14T20:26:49.747Z,10.60
2022-10-14T20:29:18.413Z,10.50
2022-10-14T20:31:46.170Z,10.50
2022-10-14T20:34:16.276Z,10.50
2022-10-14T20:36:44.047Z,10.40
2022-10-14T20:39:12.313Z,10.50
2022-10-14T20:41:40.430Z,10.50
2022-10-14T20:44:10.220Z,10.60
2022-10-14T20:46:38.202Z,10.50
2022-10-14T20:49:06.379Z,10.50
2022-10-14T20:51:34.656Z,10.50
2022-10-14T20:54:05.024Z,10.30
2022-10-14T20:56:35.634Z,10.40
2022-10-14T20:59:08.569Z,10.40
2022-10-14T21:01:38.772Z,10.40
2022-10-14T21:04:08.194Z,10.50
2022-10-14T21:06:39.185Z,10.50
2022-10-14T21:09:07.561Z,10.50
2022-10-14T21:11:36.040Z,10.50
2022-10-14T21:14:04.141Z,10.50
2022-10-14T21:16:36.817Z,10.50
2022-10-14T21:19:08.270Z,10.50
2022-10-14T21:21:50.147Z,10.40
2022-10-14T21:24:20.306Z,10.40
2022-10-14T21:26:52.177Z,10.40
2022-10-14T21:29:20.915Z,10.50
2022-10-14T21:31:49.779Z,10.40
2022-10-14T21:34:17.826Z,10.30
2022-10-14T21:36:47.834Z,10.20
2022-10-14T21:39:18.686Z,10.20
2022-10-14T21:41:46.785Z,10.20
2022-10-14T21:44:16.728Z,10.20
2022-10-14T21:46:45.074Z,10.20
2022-10-14T21:49:13.499Z,10.10
2022-10-14T21:51:41.862Z,10.10
2022-10-14T21:54:12.759Z,10.10
2022-10-14T21:56:42.003Z,10.10
2022-10-14T21:59:13.440Z,9.90
2022-10-14T22:01:42.314Z,9.90
2022-10-14T22:04:10.697Z,9.90
2022-10-14T22:06:38.723Z,9.90
2022-10-14T22:09:07.397Z,9.90
2022-10-14T22:11:38.307Z,9.90
2022-10-14T22:14:10.533Z,9.90
2022-10-14T22:16:38.736Z,9.90
2022-10-14T22:19:07.500Z,9.90
2022-10-14T22:21:37.200Z,9.90
2022-10-14T22:26:34.004Z,9.80
2022-10-14T22:29:04.768Z,9.90
2022-10-14T22:31:33.755Z,9.90
2022-10-14T22:34:04.808Z,9.90
2022-10-14T22:36:34.796Z,9.90
2022-10-14T22:39:05.557Z,9.90
2022-10-14T22:41:35.653Z,10.00
2022-10-14T22:44:05.210Z,10.00
2022-10-14T22:46:35.275Z,10.00
2022-10-14T22:49:03.012Z,10.00
2022-10-14T22:51:41.318Z,10.10
2022-10-14T22:54:09.668Z,10.10
2022-10-14T22:56:38.042Z,10.10
2022-10-14T22:59:08.688Z,10.20
2022-10-14T23:01:36.700Z,10.10
2022-10-14T23:04:04.978Z,10.10
2022-10-14T23:06:33.236Z,10.10
2022-10-14T23:09:01.585Z,10.10
2022-10-14T23:11:31.121Z,10.10
2022-10-14T23:14:03.065Z,10.10
2022-10-14T23:16:35.535Z,10.20
2022-10-14T23:19:03.347Z,10.10
2022-10-14T23:21:33.983Z,10.10
2022-10-14T23:24:07.455Z,10.20
2022-10-14T23:26:36.281Z,10.20
2022-10-14T23:29:11.781Z,10.20
2022-10-14T23:31:40.575Z,9.90
2022-10-14T23:34:12.153Z,9.80
2022-10-14T23:36:40.652Z,9.90
2022-10-14T23:39:12.171Z,10.00
2022-10-14T23:41:39.859Z,9.90
2022-10-14T23:44:07.599Z,9.90
2022-10-14T23:46:35.493Z,9.90
2022-10-14T23:49:07.520Z,9.90
2022-10-14T23:51:42.705Z,9.90
2022-10-14T23:54:10.461Z,9.90
2022-10-14T23:56:38.157Z,10.00
2022-10-14T23:59:06.070Z,9.90
